Time;durP1;ratioP1;P1;durP2;ratioP2;P2;SDS_P1;SDS_P2;PMS_P1;PMS_P2;Temp;Humidity;BMP_temperature;BMP_pressure;BME280_temperature;BME280_humidity;BME280_pressure;Samples;Min_cycle;Max_cycle;Signal;HPM_P1;HPM_P2
2022/08/14 00:00:50;;;;;;;6.80;4.53;;;23.10;86.00;;;;;;5139875;27;20027;-78
2022/08/14 00:03:21;;;;;;;7.57;4.80;;;23.20;86.00;;;;;;5140539;27;20034;-78
2022/08/14 00:05:46;;;;;;;7.45;4.35;;;23.20;86.00;;;;;;5121529;27;20023;-78
2022/08/14 00:08:12;;;;;;;7.03;4.70;;;23.20;85.90;;;;;;5120792;27;20035;-78
2022/08/14 00:10:38;;;;;;;7.25;4.45;;;23.20;85.80;;;;;;5139467;27;20572;-78
2022/08/14 00:13:04;;;;;;;7.00;4.63;;;23.20;85.80;;;;;;5140325;27;20042;-78
2022/08/14 00:15:34;;;;;;;7.22;4.35;;;23.20;85.70;;;;;;5121446;27;20126;-78
2022/08/14 00:18:01;;;;;;;6.70;4.45;;;23.20;85.60;;;;;;5139974;27;20050;-79
2022/08/14 00:20:30;;;;;;;6.15;4.38;;;23.20;85.70;;;;;;5120847;27;20030;-79
2022/08/14 00:22:55;;;;;;;7.10;4.57;;;23.20;85.70;;;;;;5139956;27;20031;-78
2022/08/14 00:25:21;;;;;;;6.70;4.57;;;23.20;85.70;;;;;;5119981;27;20034;-79
2022/08/14 00:27:47;;;;;;;7.35;4.53;;;23.20;85.90;;;;;;5138971;27;20034;-78
2022/08/14 00:30:14;;;;;;;7.53;4.45;;;23.20;85.90;;;;;;5119948;27;20398;-78
2022/08/14 00:32:41;;;;;;;6.57;4.60;;;23.10;86.00;;;;;;5120013;27;20054;-78
2022/08/14 00:35:08;;;;;;;8.15;4.88;;;23.10;85.90;;;;;;5120169;27;20382;-79
2022/08/14 00:37:34;;;;;;;6.88;4.53;;;23.10;85.90;;;;;;5138699;27;20055;-78
2022/08/14 00:40:00;;;;;;;6.68;4.47;;;23.10;86.00;;;;;;5119078;27;20027;-79
2022/08/14 00:42:27;;;;;;;7.43;4.95;;;23.10;86.00;;;;;;5138973;27;20102;-79
2022/08/14 00:44:54;;;;;;;7.03;4.93;;;23.10;86.00;;;;;;5120051;27;20600;-78
2022/08/14 00:47:20;;;;;;;6.65;4.35;;;23.10;86.10;;;;;;5093038;28;20034;-81
2022/08/14 00:49:46;;;;;;;7.55;5.18;;;23.10;86.00;;;;;;5098411;28;20030;-78
2022/08/14 00:52:14;;;;;;;7.05;4.40;;;23.20;86.00;;;;;;5027187;27;20026;-78
2022/08/14 00:54:42;;;;;;;6.53;4.43;;;23.20;85.90;;;;;;5093623;28;20014;-78
2022/08/14 00:57:07;;;;;;;7.45;4.50;;;23.20;85.90;;;;;;5030254;28;20022;-78
2022/08/14 00:59:34;;;;;;;6.05;4.20;;;23.20;85.80;;;;;;5092683;28;20036;-78
2022/08/14 01:02:01;;;;;;;6.57;4.80;;;23.20;85.80;;;;;;5086331;27;20059;-79
2022/08/14 01:04:28;;;;;;;6.93;4.43;;;23.20;85.80;;;;;;5122884;27;20029;-78
2022/08/14 01:06:54;;;;;;;7.00;4.80;;;23.20;85.80;;;;;;5122791;27;20479;-79
2022/08/14 01:09:22;;;;;;;6.28;4.20;;;23.10;85.80;;;;;;5122883;27;20032;-78
2022/08/14 01:11:49;;;;;;;6.65;4.47;;;23.10;85.90;;;;;;5037622;28;20025;-79
2022/08/14 01:14:16;;;;;;;6.72;4.20;;;23.10;86.00;;;;;;5104967;28;20388;-79
2022/08/14 01:16:42;;;;;;;8.18;4.45;;;23.10;86.00;;;;;;5105136;28;20029;-79
2022/08/14 01:21:52;;;;;;;8.02;4.93;;;23.00;86.00;;;;;;5036538;28;20037;-79
2022/08/14 01:24:20;;;;;;;7.22;4.82;;;23.10;86.10;;;;;;5035644;28;20034;-78
2022/08/14 01:26:45;;;;;;;7.20;4.43;;;23.10;86.10;;;;;;5036095;28;20442;-78
2022/08/14 01:29:12;;;;;;;6.38;4.40;;;23.10;86.10;;;;;;5035303;28;20022;-79
2022/08/14 01:31:45;;;;;;;6.68;4.68;;;23.10;86.20;;;;;;5103411;28;20034;-79
2022/08/14 01:34:10;;;;;;;7.32;4.53;;;23.10;86.10;;;;;;5103607;28;20100;-79
2022/08/14 01:36:37;;;;;;;6.50;4.38;;;23.10;86.10;;;;;;5103452;28;20053;-78
2022/08/14 01:39:12;;;;;;;6.93;4.60;;;23.10;86.00;;;;;;5034407;28;20078;-78
2022/08/14 01:41:37;;;;;;;6.93;4.40;;;23.20;86.00;;;;;;5102741;28;20037;-78
2022/08/14 01:44:07;;;;;;;6.07;4.53;;;23.20;85.90;;;;;;5034432;28;20512;-79
2022/08/14 01:46:37;;;;;;;6.32;4.57;;;23.20;85.90;;;;;;5098373;28;20036;-78
2022/08/14 01:49:06;;;;;;;6.43;4.53;;;23.10;85.70;;;;;;5014888;28;20045;-78
2022/08/14 01:51:32;;;;;;;7.13;4.90;;;23.10;85.80;;;;;;5053489;27;20021;-78
2022/08/14 01:54:00;;;;;;;6.35;4.40;;;23.10;85.80;;;;;;5122722;27;20076;-78
2022/08/14 01:56:38;;;;;;;7.80;4.70;;;23.10;85.90;;;;;;5053881;28;20029;-78
2022/08/14 01:59:31;;;;;;;7.10;4.55;;;23.10;86.00;;;;;;5053061;28;20021;-78
2022/08/14 02:01:59;;;;;;;7.35;4.88;;;23.10;86.30;;;;;;5126145;27;20021;-79
2022/08/14 02:04:29;;;;;;;6.82;4.60;;;23.10;86.60;;;;;;5124202;27;20499;-79
2022/08/14 02:06:56;;;;;;;6.82;4.70;;;23.10;86.10;;;;;;5055417;27;20029;-79
2022/08/14 02:09:21;;;;;;;7.28;4.53;;;23.10;86.20;;;;;;5054785;28;20017;-79
2022/08/14 02:11:49;;;;;;;6.97;4.50;;;23.10;86.20;;;;;;5123341;27;20045;-79
2022/08/14 02:14:14;;;;;;;6.40;4.38;;;23.10;86.30;;;;;;5124137;27;20028;-78
2022/08/14 02:16:43;;;;;;;6.53;4.35;;;23.00;86.30;;;;;;5054492;28;20029;-78
2022/08/14 02:19:13;;;;;;;7.03;4.70;;;23.10;86.20;;;;;;5054303;28;20017;-79
2022/08/14 02:21:40;;;;;;;6.27;4.30;;;23.10;86.20;;;;;;5122622;27;20029;-78
2022/08/14 02:24:06;;;;;;;6.57;4.03;;;23.10;86.10;;;;;;5053589;28;20039;-78
2022/08/14 02:26:38;;;;;;;6.72;4.60;;;23.10;86.00;;;;;;5124191;27;20399;-79
2022/08/14 02:29:16;;;;;;;6.47;4.25;;;23.10;85.90;;;;;;5055963;27;20127;-78
2022/08/14 02:31:45;;;;;;;6.60;4.18;;;23.10;85.90;;;;;;5055218;28;20429;-79
2022/08/14 02:34:22;;;;;;;6.80;4.45;;;23.10;85.80;;;;;;5034812;28;20040;-79
2022/08/14 02:36:51;;;;;;;7.78;4.40;;;23.10;85.70;;;;;;5051764;28;20640;-78
2022/08/14 02:39:18;;;;;;;8.35;5.00;;;23.10;85.90;;;;;;5123157;27;20436;-79
2022/08/14 02:41:44;;;;;;;7.07;4.45;;;23.10;86.00;;;;;;5122971;27;20029;-79
2022/08/14 02:44:10;;;;;;;6.60;4.35;;;23.10;86.10;;;;;;5054782;28;20021;-78
2022/08/14 02:46:38;;;;;;;6.38;4.55;;;23.10;86.20;;;;;;5050102;28;20033;-78
2022/08/14 02:49:05;;;;;;;6.95;4.50;;;23.10;86.30;;;;;;5044080;28;20048;-79
2022/08/14 02:51:31;;;;;;;6.18;4.40;;;23.10;86.30;;;;;;5118988;27;20020;-78
2022/08/14 02:53:57;;;;;;;7.03;4.25;;;23.10;86.30;;;;;;5137511;27;20031;-78
2022/08/14 02:56:26;;;;;;;6.90;4.95;;;23.00;86.30;;;;;;5119243;27;20015;-78
2022/08/14 02:58:54;;;;;;;6.03;4.35;;;23.00;86.30;;;;;;5137266;27;20019;-79
2022/08/14 03:01:24;;;;;;;7.05;4.57;;;23.00;86.30;;;;;;5136691;27;20030;-78
2022/08/14 03:03:50;;;;;;;6.50;4.45;;;23.00;86.40;;;;;;5137017;28;20011;-79
2022/08/14 03:06:22;;;;;;;6.40;4.38;;;23.00;86.20;;;;;;5136795;27;20118;-79
2022/08/14 03:08:48;;;;;;;6.50;4.40;;;23.00;86.20;;;;;;5118472;27;20296;-79
2022/08/14 03:11:14;;;;;;;6.50;4.28;;;23.10;86.20;;;;;;5117658;28;20016;-79
2022/08/14 03:13:44;;;;;;;6.00;4.03;;;23.10;86.10;;;;;;5136529;28;20031;-79
2022/08/14 03:16:13;;;;;;;6.20;4.00;;;23.10;86.00;;;;;;5136441;28;20020;-79
2022/08/14 03:18:44;;;;;;;6.25;4.30;;;23.10;86.00;;;;;;5117492;28;20023;-78
2022/08/14 03:21:12;;;;;;;6.25;4.45;;;23.10;85.90;;;;;;5117484;28;20037;-79
2022/08/14 03:23:39;;;;;;;5.85;4.15;;;23.10;85.90;;;;;;5138044;27;20020;-79
2022/08/14 03:26:12;;;;;;;6.80;4.85;;;23.10;86.00;;;;;;5140255;27;20053;-79
2022/08/14 03:28:40;;;;;;;6.80;4.82;;;23.10;86.20;;;;;;5140894;27;20030;-79
2022/08/14 03:31:07;;;;;;;6.43;4.35;;;23.10;86.30;;;;;;5140307;27;20031;-78
2022/08/14 03:33:36;;;;;;;6.43;4.60;;;23.00;86.30;;;;;;5121962;27;20458;-78
2022/08/14 03:36:07;;;;;;;6.45;4.68;;;23.00;86.30;;;;;;5121153;27;20022;-78
2022/08/14 03:38:33;;;;;;;7.18;4.88;;;23.00;86.40;;;;;;5121908;27;20083;-78
2022/08/14 03:40:58;;;;;;;6.75;4.68;;;23.00;86.40;;;;;;5139497;27;20564;-78
2022/08/14 03:43:24;;;;;;;6.68;4.57;;;23.00;86.40;;;;;;5139836;27;20027;-77
2022/08/14 03:45:49;;;;;;;7.28;4.63;;;23.00;86.40;;;;;;5139196;27;20033;-78
2022/08/14 03:48:20;;;;;;;6.25;3.97;;;23.00;86.40;;;;;;5027680;27;20109;-78
2022/08/14 03:50:47;;;;;;;9.07;4.60;;;22.90;86.40;;;;;;5083347;28;20018;-78
2022/08/14 03:53:14;;;;;;;6.63;4.68;;;23.00;86.30;;;;;;5083326;28;20037;-78
2022/08/14 03:55:41;;;;;;;6.13;4.53;;;23.00;86.30;;;;;;5083579;28;20026;-78
2022/08/14 03:58:07;;;;;;;5.97;4.22;;;23.00;86.20;;;;;;5083314;28;20561;-78
2022/08/14 04:00:35;;;;;;;6.38;4.25;;;23.00;86.10;;;;;;5014728;28;20030;-78
2022/08/14 04:03:04;;;;;;;7.28;4.05;;;23.00;86.00;;;;;;5082300;28;20064;-78
2022/08/14 04:05:30;;;;;;;6.80;4.88;;;23.10;86.10;;;;;;5015234;28;20026;-78
2022/08/14 04:07:57;;;;;;;6.60;4.22;;;23.10;86.10;;;;;;5014911;28;20041;-78
2022/08/14 04:10:22;;;;;;;6.97;4.78;;;23.10;86.20;;;;;;5083668;28;20034;-79
2022/08/14 04:12:48;;;;;;;6.15;4.13;;;23.10;86.20;;;;;;5086588;28;20111;-79
2022/08/14 04:15:14;;;;;;;6.60;4.63;;;23.00;86.20;;;;;;5086812;28;20022;-79
2022/08/14 04:17:42;;;;;;;7.82;4.78;;;23.00;86.30;;;;;;5086014;28;20026;-79
2022/08/14 04:20:08;;;;;;;6.93;4.78;;;23.00;86.30;;;;;;5084988;28;20483;-79
2022/08/14 04:22:34;;;;;;;6.25;4.40;;;23.00;86.40;;;;;;5017629;28;20046;-79
2022/08/14 04:25:00;;;;;;;5.85;4.32;;;23.00;86.40;;;;;;5085521;28;20026;-79
2022/08/14 04:27:26;;;;;;;6.63;4.45;;;23.00;86.40;;;;;;5016455;28;20030;-78
2022/08/14 04:29:52;;;;;;;5.97;4.50;;;23.00;86.40;;;;;;5084725;28;20038;-79
2022/08/14 04:32:19;;;;;;;6.43;4.40;;;23.00;86.50;;;;;;5016441;28;20431;-79
2022/08/14 04:34:44;;;;;;;6.38;4.28;;;23.00;86.50;;;;;;5100100;28;20381;-79
2022/08/14 04:45:26;;;;;;;6.20;4.30;;;23.00;86.20;;;;;;5035657;28;20040;-79
2022/08/14 04:50:42;;;;;;;6.53;4.43;;;23.00;86.00;;;;;;5034818;28;20075;-80
2022/08/14 04:53:09;;;;;;;;;;;23.10;86.00;;;;;;5103588;28;20021;-79
2022/08/14 04:55:35;;;;;;;7.55;4.63;;;23.10;86.00;;;;;;5035116;28;20286;-78
2022/08/14 04:58:04;;;;;;;6.93;4.55;;;23.10;86.10;;;;;;5102936;28;20026;-79
2022/08/14 05:00:30;;;;;;;6.40;4.38;;;23.10;86.20;;;;;;5102419;28;20025;-78
2022/08/14 05:02:55;;;;;;;6.22;4.30;;;23.00;86.20;;;;;;5033811;28;20037;-78
2022/08/14 05:05:23;;;;;;;6.68;4.70;;;23.00;86.20;;;;;;5102770;28;20032;-78
2022/08/14 05:07:52;;;;;;;6.43;4.50;;;23.00;86.20;;;;;;5033649;28;20028;-77
2022/08/14 05:10:22;;;;;;;6.38;4.57;;;23.00;86.20;;;;;;5101841;28;20089;-77
2022/08/14 05:12:48;;;;;;;6.82;4.70;;;23.00;86.40;;;;;;5102085;28;20024;-77
2022/08/14 05:15:14;;;;;;;6.30;4.32;;;23.00;86.30;;;;;;5034311;28;20022;-78
2022/08/14 05:17:42;;;;;;;6.88;4.57;;;23.00;86.30;;;;;;5034067;28;20039;-78
2022/08/14 05:20:09;;;;;;;6.43;4.95;;;23.00;86.30;;;;;;5033375;28;20086;-78
2022/08/14 05:22:34;;;;;;;6.65;4.57;;;23.00;86.30;;;;;;5102244;28;20108;-78
2022/08/14 05:25:02;;;;;;;6.65;4.25;;;23.00;86.30;;;;;;5101915;28;20121;-78
2022/08/14 05:27:28;;;;;;;6.55;4.57;;;23.00;86.80;;;;;;5035820;28;20029;-79
2022/08/14 05:29:54;;;;;;;6.60;4.40;;;23.00;86.10;;;;;;5036269;28;20021;-78
2022/08/14 05:32:20;;;;;;;7.10;4.68;;;23.10;86.10;;;;;;5036334;28;20067;-79
2022/08/14 05:34:46;;;;;;;6.07;4.22;;;23.10;86.00;;;;;;5104372;28;20100;-78
2022/08/14 05:37:13;;;;;;;6.35;4.75;;;23.10;85.90;;;;;;5036283;28;20041;-78
2022/08/14 05:39:40;;;;;;;6.88;4.78;;;23.10;85.90;;;;;;5103369;28;20030;-79
2022/08/14 05:42:06;;;;;;;6.05;4.43;;;23.10;85.90;;;;;;5103662;28;20660;-79
2022/08/14 05:44:31;;;;;;;6.15;4.35;;;23.10;86.00;;;;;;5035527;28;20033;-78
2022/08/14 05:46:57;;;;;;;6.65;4.65;;;23.10;86.00;;;;;;5098880;28;20033;-78
2022/08/14 05:49:23;;;;;;;5.78;4.32;;;23.10;86.10;;;;;;5105693;27;20032;-78
2022/08/14 05:51:48;;;;;;;6.72;4.65;;;23.10;86.10;;;;;;5054304;28;20029;-79
2022/08/14 05:54:14;;;;;;;6.38;4.50;;;23.10;86.10;;;;;;5122952;27;20021;-78
2022/08/14 05:56:39;;;;;;;6.05;4.40;;;23.00;86.10;;;;;;5122299;27;20021;-76
2022/08/14 05:59:05;;;;;;;5.72;4.10;;;23.10;86.20;;;;;;5054394;28;20100;-77
2022/08/14 06:01:30;;;;;;;6.75;4.55;;;23.10;85.90;;;;;;5121600;27;20025;-78
2022/08/14 06:03:56;;;;;;;6.18;4.40;;;23.10;85.90;;;;;;5122669;27;20719;-77
2022/08/14 06:06:21;;;;;;;6.38;4.20;;;23.10;85.90;;;;;;5121060;27;20059;-77
2022/08/14 06:08:47;;;;;;;5.88;4.18;;;23.10;85.90;;;;;;5051923;28;20479;-78
2022/08/14 06:11:12;;;;;;;6.47;4.32;;;23.10;85.80;;;;;;5120004;27;20021;-77
2022/08/14 06:13:40;;;;;;;6.25;4.30;;;23.10;85.80;;;;;;5051665;28;20032;-79
2022/08/14 06:16:06;;;;;;;6.22;4.30;;;23.20;85.70;;;;;;5121270;27;20025;-78
2022/08/14 06:18:34;;;;;;;6.30;4.47;;;23.20;85.60;;;;;;5052500;28;20104;-79
2022/08/14 06:21:00;;;;;;;5.88;4.10;;;23.20;85.50;;;;;;5120909;27;20028;-79
2022/08/14 06:23:25;;;;;;;6.10;4.10;;;23.20;85.30;;;;;;5126452;27;20047;-80
2022/08/14 06:25:51;;;;;;;6.45;4.57;;;23.20;85.00;;;;;;5057433;28;20029;-80
2022/08/14 06:28:22;;;;;;;6.10;4.32;;;23.20;85.00;;;;;;5124337;27;20059;-80
2022/08/14 06:30:49;;;;;;;6.80;4.55;;;23.30;84.90;;;;;;5124317;27;20036;-80
2022/08/14 06:33:16;;;;;;;6.18;4.60;;;23.30;85.00;;;;;;5054831;28;20060;-79
2022/08/14 06:35:42;;;;;;;5.70;3.90;;;23.30;85.00;;;;;;5053614;28;20518;-78
2022/08/14 06:38:07;;;;;;;6.70;4.50;;;23.30;84.90;;;;;;5054987;28;20025;-78
2022/08/14 06:40:35;;;;;;;7.07;4.70;;;23.30;84.90;;;;;;5122118;27;20064;-79
2022/08/14 06:43:08;;;;;;;6.55;4.60;;;23.20;84.80;;;;;;5122021;27;20021;-79
2022/08/14 06:45:36;;;;;;;6.30;4.60;;;23.30;85.00;;;;;;5053181;28;20391;-79
2022/08/14 06:48:02;;;;;;;5.80;4.35;;;23.30;84.90;;;;;;5052624;28;20399;-79
2022/08/14 06:50:29;;;;;;;6.00;4.30;;;23.30;84.80;;;;;;5052669;28;20021;-79
2022/08/14 06:52:55;;;;;;;6.15;4.50;;;23.30;84.90;;;;;;5039373;28;20033;-77
2022/08/14 06:55:21;;;;;;;7.03;4.85;;;23.30;84.80;;;;;;5023015;28;20030;-79
2022/08/14 06:57:48;;;;;;;6.00;4.18;;;23.30;84.90;;;;;;5062092;27;20031;-75
2022/08/14 07:00:17;;;;;;;6.25;4.50;;;23.40;84.80;;;;;;5100030;27;20042;-78
2022/08/14 07:05:47;;;;;;;5.90;4.45;;;23.40;84.40;;;;;;5012376;28;20029;-78
2022/08/14 07:08:13;;;;;;;7.55;4.60;;;23.50;84.20;;;;;;5123725;27;20512;-78
2022/08/14 07:10:42;;;;;;;6.82;5.10;;;23.50;83.90;;;;;;5116547;27;20041;-78
2022/08/14 07:13:09;;;;;;;6.75;4.55;;;23.50;83.90;;;;;;5064479;28;20474;-78
2022/08/14 07:15:35;;;;;;;8.27;5.20;;;23.60;83.70;;;;;;5055743;28;20097;-78
2022/08/14 07:18:02;;;;;;;8.90;4.72;;;23.60;83.70;;;;;;5108411;28;20060;-79
2022/08/14 07:20:28;;;;;;;7.65;4.60;;;23.50;83.50;;;;;;5081504;28;20070;-82
2022/08/14 07:22:57;;;;;;;7.22;4.90;;;23.50;83.50;;;;;;5022724;28;20521;-79
2022/08/14 07:25:24;;;;;;;8.07;5.00;;;23.60;83.50;;;;;;5035531;28;20029;-81
2022/08/14 07:27:50;;;;;;;12.45;6.03;;;23.60;83.40;;;;;;5081098;28;20030;-79
2022/08/14 07:30:25;;;;;;;13.43;6.57;;;23.50;82.70;;;;;;5109916;28;20034;-77
2022/08/14 07:32:51;;;;;;;18.42;7.60;;;23.50;81.30;;;;;;5054215;28;20021;-80
2022/08/14 07:35:17;;;;;;;20.08;8.18;;;23.50;80.30;;;;;;5054325;28;20021;-80
2022/08/14 07:37:45;;;;;;;15.45;7.57;;;23.50;79.80;;;;;;5122738;28;20025;-81
2022/08/14 07:40:11;;;;;;;13.82;7.82;;;23.50;79.20;;;;;;5053612;27;20107;-80
2022/08/14 07:42:37;;;;;;;12.05;7.95;;;23.40;78.70;;;;;;5121971;27;20060;-79
2022/08/14 07:45:03;;;;;;;14.48;8.18;;;23.50;78.50;;;;;;5129047;28;20028;-79
2022/08/14 07:47:28;;;;;;;9.63;7.90;;;23.50;77.90;;;;;;5078161;27;20075;-80
2022/08/14 07:50:04;;;;;;;10.95;7.75;;;23.50;77.90;;;;;;5136745;28;20470;-79
2022/08/14 07:52:29;;;;;;;11.95;7.97;;;23.60;77.60;;;;;;5137194;28;20019;-79
2022/08/14 07:54:55;;;;;;;12.52;8.15;;;23.60;77.40;;;;;;5098864;28;20018;-80
2022/08/14 07:57:21;;;;;;;10.98;7.95;;;23.60;77.20;;;;;;5089091;28;20030;-80
2022/08/14 07:59:47;;;;;;;11.65;7.78;;;23.60;77.40;;;;;;5012738;28;20033;-80
2022/08/14 08:02:15;;;;;;;14.10;8.27;;;23.60;77.30;;;;;;5081005;28;20408;-80
2022/08/14 08:04:45;;;;;;;17.20;8.60;;;23.60;76.60;;;;;;5025754;28;20044;-80
2022/08/14 08:07:11;;;;;;;13.02;7.63;;;23.60;76.50;;;;;;5130643;28;20051;-81
2022/08/14 08:09:42;;;;;;;12.10;8.07;;;23.60;77.00;;;;;;5119000;27;20573;-79
2022/08/14 08:12:09;;;;;;;17.10;8.98;;;23.70;76.50;;;;;;5071750;27;20021;-79
2022/08/14 08:14:36;;;;;;;13.27;8.32;;;23.60;76.50;;;;;;5056338;28;20021;-78
2022/08/14 08:17:03;;;;;;;12.50;8.13;;;23.60;76.30;;;;;;5056547;28;20033;-79
2022/08/14 08:19:30;;;;;;;11.50;7.88;;;23.60;76.40;;;;;;5055822;28;20025;-79
2022/08/14 08:21:57;;;;;;;11.35;8.00;;;23.60;76.30;;;;;;5056182;27;20069;-79
2022/08/14 08:24:23;;;;;;;12.25;8.25;;;23.60;76.30;;;;;;5125945;27;20128;-79
2022/08/14 08:26:48;;;;;;;10.90;8.05;;;23.60;76.30;;;;;;5127531;27;20122;-79
2022/08/14 08:29:23;;;;;;;11.45;7.97;;;23.70;76.20;;;;;;5140821;27;20015;-79
2022/08/14 08:31:50;;;;;;;12.18;8.30;;;23.70;76.10;;;;;;5130334;27;20050;-79
2022/08/14 08:34:19;;;;;;;11.15;8.32;;;23.70;75.90;;;;;;5131363;27;20015;-79
2022/08/14 08:36:45;;;;;;;11.65;8.45;;;23.70;75.80;;;;;;5150107;27;20075;-78
2022/08/14 08:39:11;;;;;;;11.95;7.93;;;23.80;75.50;;;;;;5139833;27;20506;-78
2022/08/14 08:41:44;;;;;;;11.75;7.70;;;23.80;75.50;;;;;;5138285;27;20023;-79
2022/08/14 08:44:10;;;;;;;12.90;8.60;;;23.80;75.60;;;;;;5120522;27;20065;-78
2022/08/14 08:46:36;;;;;;;11.20;7.47;;;23.80;75.50;;;;;;5139342;27;20027;-78
2022/08/14 08:49:02;;;;;;;10.95;7.43;;;23.80;75.10;;;;;;5125102;27;20032;-76
2022/08/14 08:51:29;;;;;;;11.02;8.70;;;23.80;75.10;;;;;;5097725;27;20021;-75
2022/08/14 08:54:08;;;;;;;9.93;7.70;;;23.80;75.00;;;;;;5120789;27;20023;-78
2022/08/14 08:56:44;;;;;;;11.93;8.93;;;23.80;75.10;;;;;;5083757;28;20030;-82
2022/08/14 08:59:25;;;;;;;13.65;8.30;;;23.80;75.20;;;;;;5086053;27;20484;-79
2022/08/14 09:02:04;;;;;;;10.82;8.00;;;23.80;75.20;;;;;;5022205;28;20448;-78
2022/08/14 09:04:41;;;;;;;12.77;8.25;;;23.80;75.20;;;;;;5108866;27;20106;-78
2022/08/14 09:07:07;;;;;;;10.43;7.65;;;23.80;75.30;;;;;;5101768;27;20054;-79
2022/08/14 09:09:33;;;;;;;10.50;8.27;;;23.80;75.30;;;;;;5128444;27;20050;-79
2022/08/14 09:12:02;;;;;;;9.25;7.55;;;23.80;75.20;;;;;;5091072;28;20057;-78
2022/08/14 09:14:29;;;;;;;10.13;7.47;;;23.80;75.60;;;;;;5028579;28;20013;-78
2022/08/14 09:16:56;;;;;;;10.82;7.90;;;23.80;75.30;;;;;;5014836;28;20038;-78
2022/08/14 09:19:22;;;;;;;9.23;8.20;;;23.90;75.10;;;;;;5016713;27;20116;-78
2022/08/14 09:21:48;;;;;;;9.10;7.80;;;23.90;75.30;;;;;;5024463;28;20032;-79
2022/08/14 09:24:14;;;;;;;10.63;8.25;;;23.90;74.80;;;;;;5114293;27;20061;-78
2022/08/14 09:26:41;;;;;;;10.18;8.00;;;24.00;74.80;;;;;;5111950;27;20028;-78
2022/08/14 09:29:08;;;;;;;9.82;8.27;;;24.00;74.50;;;;;;5125251;27;20066;-79
2022/08/14 09:31:35;;;;;;;8.57;7.57;;;24.00;74.40;;;;;;5029079;28;20026;-78
2022/08/14 09:34:19;;;;;;;9.35;7.20;;;24.00;74.40;;;;;;5017111;28;20105;-78
2022/08/14 09:37:06;;;;;;;9.85;7.13;;;24.00;74.30;;;;;;5121536;27;20019;-80
2022/08/14 09:40:09;;;;;;;9.43;7.20;;;24.00;74.40;;;;;;5105180;27;20383;-78
2022/08/14 09:42:42;;;;;;;12.07;7.88;;;24.00;74.50;;;;;;5025614;28;20017;-79
2022/08/14 09:45:19;;;;;;;9.00;7.45;;;24.00;74.60;;;;;;5039837;27;20025;-78
2022/08/14 09:47:50;;;;;;;8.20;7.13;;;24.00;74.70;;;;;;5014568;28;20109;-79
2022/08/14 09:50:19;;;;;;;9.48;7.00;;;23.90;74.80;;;;;;5111139;27;20365;-78
2022/08/14 09:52:51;;;;;;;10.00;8.23;;;24.00;75.00;;;;;;5102835;27;20104;-78
2022/08/14 09:55:20;;;;;;;;;;;23.90;75.40;;;;;;5083764;28;20484;-78
2022/08/14 09:57:46;;;;;;;8.88;7.22;;;24.00;75.50;;;;;;5039440;28;19909;-79
2022/08/14 10:00:14;;;;;;;11.48;7.70;;;24.00;75.20;;;;;;5029483;28;20045;-76
2022/08/14 10:02:51;;;;;;;8.55;7.20;;;24.00;75.20;;;;;;5093480;27;20026;-76
2022/08/14 10:05:32;;;;;;;9.43;7.80;;;24.00;74.70;;;;;;5105013;27;20029;-79
2022/08/14 10:07:59;;;;;;;8.80;7.10;;;24.00;74.60;;;;;;5029851;28;20053;-79
2022/08/14 10:10:32;;;;;;;9.65;7.35;;;24.00;74.50;;;;;;5013943;28;20026;-78
2022/08/14 10:13:00;;;;;;;9.70;6.85;;;24.10;74.40;;;;;;5034040;28;20029;-79
2022/08/14 10:15:27;;;;;;;9.00;7.72;;;24.10;74.20;;;;;;5123768;27;20028;-80
2022/08/14 10:18:12;;;;;;;8.60;7.00;;;24.10;74.60;;;;;;5126504;27;20029;-80
2022/08/14 10:20:41;;;;;;;10.57;7.60;;;24.10;74.10;;;;;;5018990;28;20022;-79
2022/08/14 10:23:18;;;;;;;9.18;7.22;;;24.10;74.20;;;;;;5084966;28;20030;-79
2022/08/14 10:25:49;;;;;;;9.98;7.78;;;24.10;74.10;;;;;;5016679;28;20044;-79
2022/08/14 10:28:15;;;;;;;8.68;7.43;;;24.20;74.20;;;;;;5095931;27;20056;-79
2022/08/14 10:30:46;;;;;;;7.93;7.10;;;24.20;74.30;;;;;;5035816;28;20101;-80
2022/08/14 10:33:23;;;;;;;10.70;8.02;;;24.20;74.20;;;;;;5103199;27;20029;-79
2022/08/14 10:35:48;;;;;;;8.50;7.32;;;24.20;74.30;;;;;;5103452;28;20108;-80
2022/08/14 10:38:34;;;;;;;8.98;7.97;;;24.30;74.40;;;;;;5103918;28;20530;-80
2022/08/14 10:41:12;;;;;;;9.18;7.72;;;24.30;75.00;;;;;;5103047;28;20025;-79
2022/08/14 10:43:40;;;;;;;9.00;7.80;;;24.30;74.60;;;;;;5037008;28;20021;-79
2022/08/14 10:46:16;;;;;;;9.65;7.70;;;24.20;74.70;;;;;;5104816;28;20030;-82
2022/08/14 10:48:59;;;;;;;9.25;8.15;;;24.20;74.80;;;;;;5103134;27;20029;-79
2022/08/14 10:51:29;;;;;;;9.57;7.88;;;24.20;75.00;;;;;;5083232;28;20026;-80
2022/08/14 10:53:57;;;;;;;8.97;7.63;;;24.30;75.20;;;;;;5025463;28;20270;-80
2022/08/14 10:56:32;;;;;;;8.95;7.80;;;24.30;75.20;;;;;;5101663;28;20320;-79
2022/08/14 10:59:07;;;;;;;9.30;7.85;;;24.30;75.10;;;;;;5032594;28;20033;-79
2022/08/14 11:01:34;;;;;;;9.68;7.53;;;24.30;75.10;;;;;;5082298;28;20107;-79
2022/08/14 11:04:00;;;;;;;9.50;7.82;;;24.40;75.00;;;;;;5015127;28;20018;-80
2022/08/14 11:06:29;;;;;;;9.63;7.82;;;24.40;75.00;;;;;;5081356;28;20034;-79
2022/08/14 11:08:55;;;;;;;9.63;8.13;;;24.40;75.20;;;;;;5013802;28;20022;-80
2022/08/14 11:11:25;;;;;;;9.95;8.02;;;24.40;75.30;;;;;;5073061;27;20058;-79
2022/08/14 11:13:56;;;;;;;9.00;7.72;;;24.40;75.30;;;;;;5137806;28;20011;-79
2022/08/14 11:16:23;;;;;;;9.30;7.95;;;24.30;75.50;;;;;;5138313;28;20482;-79
2022/08/14 11:18:49;;;;;;;9.70;7.85;;;24.30;75.70;;;;;;5137629;28;20528;-79
2022/08/14 11:21:18;;;;;;;9.40;8.40;;;24.30;75.80;;;;;;5027538;28;20484;-80
2022/08/14 11:23:46;;;;;;;10.93;8.00;;;24.30;76.00;;;;;;5013472;28;20409;-79
2022/08/14 11:26:13;;;;;;;8.63;7.47;;;24.30;76.10;;;;;;5081121;28;20392;-80
2022/08/14 11:28:42;;;;;;;9.95;8.15;;;24.30;76.10;;;;;;5030935;28;20082;-79
2022/08/14 11:31:10;;;;;;;10.10;7.88;;;24.30;76.70;;;;;;5100681;28;20072;-79
2022/08/14 11:33:37;;;;;;;8.95;8.00;;;24.30;76.20;;;;;;5104349;28;20388;-81
2022/08/14 11:36:06;;;;;;;9.35;7.80;;;24.30;76.20;;;;;;5104284;28;20075;-80
2022/08/14 11:38:39;;;;;;;9.70;8.18;;;24.30;76.30;;;;;;5036034;28;20032;-80
2022/08/14 11:41:06;;;;;;;9.52;7.70;;;24.30;76.20;;;;;;5035254;28;20480;-80
2022/08/14 11:43:39;;;;;;;9.10;8.13;;;24.30;76.20;;;;;;5103326;28;20064;-80
2022/08/14 11:46:05;;;;;;;9.45;8.00;;;24.30;76.10;;;;;;5038373;28;20043;-81
2022/08/14 11:48:30;;;;;;;9.70;8.05;;;24.40;76.10;;;;;;5040368;28;20030;-80
2022/08/14 11:50:56;;;;;;;8.88;7.70;;;24.40;76.00;;;;;;5086663;27;20074;-80
2022/08/14 11:53:29;;;;;;;8.82;7.50;;;24.40;76.00;;;;;;5058126;28;20045;-80
2022/08/14 11:56:01;;;;;;;9.27;7.78;;;24.40;76.10;;;;;;5139966;27;20076;-79
2022/08/14 11:58:33;;;;;;;9.38;7.82;;;24.40;76.20;;;;;;5060942;27;20025;-80
2022/08/14 12:01:02;;;;;;;8.98;7.78;;;24.40;76.30;;;;;;5027050;28;20083;-79
2022/08/14 12:03:42;;;;;;;8.80;7.85;;;24.40;76.40;;;;;;5032355;27;20037;-78
2022/08/14 12:06:10;;;;;;;9.30;7.90;;;24.40;76.50;;;;;;5071585;27;20034;-81
2022/08/14 12:08:37;;;;;;;9.13;7.82;;;24.30;76.60;;;;;;5108936;27;20021;-81
2022/08/14 12:11:04;;;;;;;9.80;8.25;;;24.30;76.70;;;;;;5037741;27;20051;-79
2022/08/14 12:13:31;;;;;;;9.60;8.02;;;24.30;76.80;;;;;;5056404;28;20069;-80
2022/08/14 12:16:07;;;;;;;8.77;7.78;;;24.30;76.80;;;;;;5057279;27;20025;-79
2022/08/14 12:18:43;;;;;;;9.10;7.65;;;24.30;76.90;;;;;;5056178;28;20029;-79
2022/08/14 12:21:12;;;;;;;8.43;7.38;;;24.30;77.00;;;;;;5056164;28;20024;-80
2022/08/14 12:23:39;;;;;;;9.20;7.78;;;24.30;77.00;;;;;;5125510;27;20503;-80
2022/08/14 12:26:06;;;;;;;9.48;7.85;;;24.30;77.10;;;;;;5101840;27;20037;-81
2022/08/14 12:28:32;;;;;;;8.70;7.50;;;24.30;77.20;;;;;;5025244;28;20048;-78
2022/08/14 12:30:58;;;;;;;8.32;7.18;;;24.30;77.10;;;;;;5119273;27;20373;-79
2022/08/14 12:33:29;;;;;;;9.63;7.90;;;24.30;77.00;;;;;;5054424;27;20708;-76
2022/08/14 12:35:57;;;;;;;8.45;7.10;;;24.30;76.90;;;;;;5119822;27;20021;-76
2022/08/14 12:38:37;;;;;;;9.07;7.10;;;24.30;76.90;;;;;;5113239;27;20034;-78
2022/08/14 12:41:08;;;;;;;8.40;7.40;;;24.30;77.00;;;;;;5098345;28;20056;-79
2022/08/14 12:43:53;;;;;;;8.68;7.55;;;24.30;77.20;;;;;;5099331;28;20455;-79
2022/08/14 12:46:32;;;;;;;9.73;7.78;;;24.30;77.30;;;;;;5016163;28;20049;-80
2022/08/14 12:49:03;;;;;;;8.63;7.72;;;24.20;77.40;;;;;;5019860;28;20010;-80
2022/08/14 12:51:29;;;;;;;8.75;7.65;;;24.20;77.50;;;;;;5087282;28;20026;-81
2022/08/14 12:53:56;;;;;;;8.93;7.50;;;24.10;77.60;;;;;;5018529;28;20029;-80
2022/08/14 12:56:26;;;;;;;8.90;7.60;;;24.10;77.80;;;;;;5011991;28;20026;-77
2022/08/14 12:58:54;;;;;;;8.82;7.45;;;24.10;77.80;;;;;;5095940;28;20026;-82
2022/08/14 13:01:28;;;;;;;9.27;7.90;;;24.10;78.00;;;;;;5103460;28;20506;-79
2022/08/14 13:04:09;;;;;;;9.60;7.72;;;24.00;78.10;;;;;;5037419;28;20036;-81
2022/08/14 13:06:36;;;;;;;9.18;7.57;;;24.00;78.10;;;;;;5037610;28;20037;-82
2022/08/14 13:09:03;;;;;;;9.35;7.70;;;24.00;78.20;;;;;;5038781;28;20037;-81